Big Bear Station Historical Data
Daily Summary for May 31, 2019 Units:  English    Metric   Both
Next Day »
Daily Weekly Monthly Yearly Custom
  High: Low: Average:
Temperature: 69.6 °F 39.2 °F 52.5 °F
Dew Point: 49.2 °F 37.3 °F 41.8 °F
Humidity: 95% 40% 70%
Wind Speed: 11.4mph 0mph 1.8mph
Wind Gust: -999mph - -
Wind- - WSW
Pressure: 23.48 in 23.40 in -
Precipitation: 0 in    
Historical Graphs
 
 
Tabular Data for May 31, 2019
Time Temperature Dew Point Pressure Wind Wind Speed Wind Gust Humidity Rainfall Rate (Hourly)
00:12 45.3 °F 39.2 °F 23.48 in Calm   -999 mph 79% 0.00 in
00:27 45.1 °F 39 °F 23.48 in Calm   -999 mph 79% 0.00 in
00:42 44.6 °F 38.5 °F 23.48 in Calm   -999 mph 79% 0.00 in
00:58 44.4 °F 38.6 °F 23.47 in Calm   -999 mph 80% 0.00 in
01:13 44.4 °F 38.9 °F 23.47 in Calm   -999 mph 81% 0.00 in
01:28 44.2 °F 39.7 °F 23.47 in Calm   -999 mph 84% 0.00 in
01:43 43.9 °F 39.7 °F 23.47 in Calm   -999 mph 85% 0.00 in
01:58 43.7 °F 39.5 °F 23.47 in Calm   -999 mph 85% 0.00 in
02:14 43.5 °F 39 °F 23.47 in Calm   -999 mph 84% 0.00 in
02:29 42.8 °F 38.9 °F 23.46 in Calm   -999 mph 86% 0.00 in
02:44 42.3 °F 38.4 °F 23.46 in Calm   -999 mph 86% 0.00 in
02:59 41.9 °F 38.3 °F 23.46 in Calm   -999 mph 87% 0.00 in
03:14 41.4 °F 38.1 °F 23.46 in Calm   -999 mph 88% 0.00 in
03:30 41.2 °F 38.2 °F 23.45 in Calm   -999 mph 89% 0.00 in
03:45 40.8 °F 37.8 °F 23.45 in Calm   -999 mph 89% 0.00 in
04:00 40.5 °F 37.5 °F 23.45 in Calm   -999 mph 89% 0.00 in
04:15 40.3 °F 37.3 °F 23.45 in Calm   -999 mph 89% 0.00 in
04:30 40.1 °F 37.7 °F 23.45 in Calm   -999 mph 91% 0.00 in
04:46 39.7 °F 37.6 °F 23.45 in Calm   -999 mph 92% 0.00 in
05:01 39.6 °F 37.5 °F 23.44 in Calm   -999 mph 92% 0.00 in
05:16 39.4 °F 37.3 °F 23.44 in Calm   -999 mph 92% 0.00 in
05:31 39.2 °F 37.6 °F 23.45 in Calm   -999 mph 94% 0.00 in
05:47 39.2 °F 37.6 °F 23.44 in Calm   -999 mph 94% 0.00 in
06:02 39.2 °F 37.9 °F 23.45 in Calm   -999 mph 95% 0.00 in
06:17 39.4 °F 38.1 °F 23.45 in Calm   -999 mph 95% 0.00 in
06:32 39.2 °F 37.9 °F 23.45 in Calm   -999 mph 95% 0.00 in
06:47 39.7 °F 38.4 °F 23.45 in Calm   -999 mph 95% 0.00 in
07:03 40.5 °F 39.2 °F 23.45 in Calm   -999 mph 95% 0.00 in
07:18 41 °F 39.7 °F 23.45 in Calm   -999 mph 95% 0.00 in
07:33 43.5 °F 41.6 °F 23.45 in Calm   -999 mph 93% 0.00 in
07:48 43.7 °F 42.1 °F 23.45 in Calm   -999 mph 94% 0.00 in
08:03 45.3 °F 43.4 °F 23.45 in Calm   -999 mph 93% 0.00 in
08:19 46.4 °F 43.6 °F 23.45 in Calm   -999 mph 90% 0.00 in
08:34 48.6 °F 43.7 °F 23.45 in Calm   -999 mph 83% 0.00 in
08:49 52.2 °F 41.6 °F 23.45 in Calm   -999 mph 67% 0.00 in
09:04 55.2 °F 40.2 °F 23.45 in SSE 4.7 mph -999 mph 57% 0.00 in
09:19 56.8 °F 40.3 °F 23.45 in WNW 2.7 mph -999 mph 54% 0.00 in
09:35 58.6 °F 40 °F 23.45 in SSW 2.7 mph -999 mph 50% 0.00 in
09:50 59.9 °F 40.7 °F 23.45 in Calm   -999 mph 49% 0.00 in
10:05 60.8 °F 40.4 °F 23.45 in Calm   -999 mph 47% 0.00 in
10:21 60.6 °F 40.3 °F 23.45 in SSW 1.1 mph -999 mph 47% 0.00 in
10:36 61.2 °F 40.3 °F 23.45 in NE 1.7 mph -999 mph 46% 0.00 in
10:52 61.9 °F 42 °F 23.45 in NNW 2.2 mph -999 mph 48% 0.00 in
11:07 62.2 °F 42.3 °F 23.45 in WNW 4.7 mph -999 mph 48% 0.00 in
11:23 63.1 °F 42 °F 23.45 in NNE 2.7 mph -999 mph 46% 0.00 in
11:38 64.4 °F 43.2 °F 23.46 in NW 6.8 mph -999 mph 46% 0.00 in
11:53 64.8 °F 42.4 °F 23.45 in SSE 5.3 mph -999 mph 44% 0.00 in
12:09 67.6 °F 43.1 °F 23.45 in WNW 3.7 mph -999 mph 41% 0.00 in
12:24 68 °F 42.8 °F 23.45 in NW 7.3 mph -999 mph 40% 0.00 in
12:39 68.4 °F 43.1 °F 23.45 in North 5.3 mph -999 mph 40% 0.00 in
12:54 69.6 °F 44.2 °F 23.45 in WNW 3.7 mph -999 mph 40% 0.00 in
13:09 68.9 °F 44.9 °F 23.45 in ESE 5.3 mph -999 mph 42% 0.00 in
13:25 65.8 °F 45 °F 23.44 in NNW 6.3 mph -999 mph 47% 0.00 in
13:40 64.4 °F 46.4 °F 23.44 in WNW 6.3 mph -999 mph 52% 0.00 in
13:55 62.4 °F 46.5 °F 23.44 in NW 5.8 mph -999 mph 56% 0.00 in
14:11 60.8 °F 46.8 °F 23.44 in NW 4.2 mph -999 mph 60% 0.00 in
14:26 60.8 °F 45.5 °F 23.44 in NW 3.2 mph -999 mph 57% 0.00 in
14:41 60.8 °F 46.4 °F 23.43 in NNW 2.7 mph -999 mph 59% 0.00 in
14:57 62.2 °F 47.7 °F 23.43 in Calm   -999 mph 59% 0.00 in
15:12 64.4 °F 48.8 °F 23.43 in NW 5.8 mph -999 mph 57% 0.00 in
15:28 65.3 °F 47.7 °F 23.43 in NNW 3.7 mph -999 mph 53% 0.00 in
15:43 65.5 °F 47.4 °F 23.42 in WNW 6.3 mph -999 mph 52% 0.00 in
15:58 66 °F 47.9 °F 23.42 in WNW 7.3 mph -999 mph 52% 0.00 in
16:13 64.2 °F 46.7 °F 23.41 in NW 5.3 mph -999 mph 53% 0.00 in
16:29 65.3 °F 47.7 °F 23.41 in NNW 11.4 mph -999 mph 53% 0.00 in
16:44 66.9 °F 49.2 °F 23.41 in NW 5.8 mph -999 mph 53% 0.00 in
16:59 66.9 °F 48.7 °F 23.40 in NNW 3.2 mph -999 mph 52% 0.00 in
17:14 65.5 °F 48.4 °F 23.41 in NE 3.2 mph -999 mph 54% 0.00 in
17:30 63.7 °F 47.2 °F 23.40 in WSW 2.7 mph -999 mph 55% 0.00 in
17:45 62.8 °F 47.3 °F 23.40 in NNE 7.3 mph -999 mph 57% 0.00 in
18:00 60.8 °F 45.9 °F 23.40 in WNW 3.7 mph -999 mph 58% 0.00 in
18:16 57.4 °F 44.9 °F 23.40 in Calm   -999 mph 63% 0.00 in
18:31 57.7 °F 45.2 °F 23.40 in Calm   -999 mph 63% 0.00 in
18:46 55.9 °F 44.7 °F 23.40 in South 2.7 mph -999 mph 66% 0.00 in
19:02 55.8 °F 45.8 °F 23.40 in Calm   -999 mph 69% 0.00 in
19:17 55 °F 46.1 °F 23.41 in WNW 1.7 mph -999 mph 72% 0.00 in
19:32 54.1 °F 45.3 °F 23.41 in Calm   -999 mph 72% 0.00 in
19:48 53.2 °F 44.8 °F 23.41 in ESE 2.2 mph -999 mph 73% 0.00 in
20:03 52.5 °F 44.5 °F 23.41 in Calm   -999 mph 74% 0.00 in
20:18 51.8 °F 43.8 °F 23.42 in Calm   -999 mph 74% 0.00 in
20:33 51.1 °F 43.1 °F 23.42 in Calm   -999 mph 74% 0.00 in
20:48 50.7 °F 41.3 °F 23.42 in West 1.1 mph -999 mph 70% 0.00 in
21:04 50.4 °F 40.6 °F 23.42 in Calm   -999 mph 69% 0.00 in
21:19 50 °F 39.5 °F 23.42 in Calm   -999 mph 67% 0.00 in
21:34 49.8 °F 38.5 °F 23.42 in SSW 2.2 mph -999 mph 65% 0.00 in
21:49 49.6 °F 38.3 °F 23.42 in Calm   -999 mph 65% 0.00 in
22:05 49.3 °F 37.6 °F 23.43 in Calm   -999 mph 64% 0.00 in
22:20 48.7 °F 38.2 °F 23.43 in South 1.7 mph -999 mph 67% 0.00 in
22:35 47.7 °F 38.4 °F 23.43 in Calm   -999 mph 70% 0.00 in
22:50 46.2 °F 39.7 °F 23.43 in Calm   -999 mph 78% 0.00 in
23:05 45.3 °F 38.8 °F 23.43 in Calm   -999 mph 78% 0.00 in
23:21 44.6 °F 38.5 °F 23.42 in Calm   -999 mph 79% 0.00 in
23:36 44.1 °F 38.6 °F 23.42 in Calm   -999 mph 81% 0.00 in
23:51 43.5 °F 38.4 °F 23.42 in Calm   -999 mph 82% 0.00 in
Big Bear CA Weather